Time;durP1;ratioP1;P1;durP2;ratioP2;P2;SDS_P1;SDS_P2;PMS_P1;PMS_P2;Temp;Humidity;BMP_temperature;BMP_pressure;BME280_temperature;BME280_humidity;BME280_pressure;Samples;Min_cycle;Max_cycle;Signal;HPM_P1;HPM_P2
2022/05/01 00:01:44;;;;;;;14.70;9.55;;;;;;;;;;5013761;28;20046;-64
2022/05/01 00:04:11;;;;;;;13.20;9.88;;;;;;;;;;5013105;28;20096;-64
2022/05/01 00:06:37;;;;;;;14.65;9.75;;;;;;;;;;5013147;28;20054;-64
2022/05/01 00:09:06;;;;;;;14.30;10.30;;;;;;;;;;5013415;28;20060;-64
2022/05/01 00:11:32;;;;;;;13.82;9.82;;;;;;;;;;5012692;28;20049;-64
2022/05/01 00:13:58;;;;;;;14.02;9.27;;;;;;;;;;5013413;28;20121;-64
2022/05/01 00:16:25;;;;;;;13.98;8.90;;;;;;;;;;5013403;28;20056;-64
2022/05/01 00:18:51;;;;;;;13.77;9.20;;;;;;;;;;5012494;28;20144;-64
2022/05/01 00:21:17;;;;;;;14.90;9.82;;;;;;;;;;5013365;28;20038;-64
2022/05/01 00:23:43;;;;;;;14.73;9.73;;;;;;;;;;5013359;28;20388;-64
2022/05/01 00:26:09;;;;;;;13.40;9.38;;;;;;;;;;5012600;28;20036;-64
2022/05/01 00:28:36;;;;;;;14.50;9.48;;;;;;;;;;5011545;28;20050;-64
2022/05/01 00:31:05;;;;;;;12.90;9.88;;;;;;;;;;5012698;28;20902;-64
2022/05/01 00:36:28;;;;;;;13.60;10.38;;;;;;;;;;5012905;28;20471;-64
2022/05/01 00:39:03;;;;;;;12.32;10.35;;;;;;;;;;5012965;28;20037;-64
2022/05/01 00:41:31;;;;;;;14.57;10.23;;;;;;;;;;5012153;28;20037;-64
2022/05/01 00:44:08;;;;;;;13.70;9.55;;;;;;;;;;5012894;28;20042;-64
2022/05/01 00:46:38;;;;;;;14.98;10.30;;;;;;;;;;5012906;28;20040;-64
2022/05/01 00:49:05;;;;;;;16.67;10.93;;;;;;;;;;5011781;28;20060;-64
2022/05/01 00:51:33;;;;;;;15.30;10.45;;;;;;;;;;5028060;28;20034;-64
2022/05/01 00:53:59;;;;;;;13.25;10.77;;;;;;;;;;5012727;28;20038;-64
2022/05/01 00:56:25;;;;;;;15.38;11.27;;;;;;;;;;5011823;28;20084;-64
2022/05/01 00:58:51;;;;;;;14.15;10.85;;;;;;;;;;5012365;28;20046;-64
2022/05/01 01:01:19;;;;;;;14.27;10.65;;;;;;;;;;5012558;28;20096;-64
2022/05/01 01:03:45;;;;;;;14.52;10.77;;;;;;;;;;5011138;28;20042;-64
2022/05/01 01:06:11;;;;;;;12.27;10.65;;;;;;;;;;5012070;28;20516;-64
2022/05/01 01:08:37;;;;;;;16.23;12.15;;;;;;;;;;5012212;28;20056;-64
2022/05/01 01:11:04;;;;;;;14.77;10.68;;;;;;;;;;5011521;28;20049;-64
2022/05/01 01:13:30;;;;;;;17.42;11.48;;;;;;;;;;5012288;28;20069;-64
2022/05/01 01:15:57;;;;;;;17.08;11.07;;;;;;;;;;5010744;28;20053;-64
2022/05/01 01:18:23;;;;;;;19.42;12.23;;;;;;;;;;5011376;28;20041;-64
2022/05/01 01:20:51;;;;;;;16.13;11.55;;;;;;;;;;5012304;28;20112;-64
2022/05/01 01:23:18;;;;;;;17.73;11.57;;;;;;;;;;5011039;28;20046;-64
2022/05/01 01:25:44;;;;;;;18.23;11.55;;;;;;;;;;5011497;28;20107;-64
2022/05/01 01:28:10;;;;;;;17.77;11.15;;;;;;;;;;5012174;28;20463;-64
2022/05/01 01:33:22;;;;;;;17.95;12.35;;;;;;;;;;5011521;28;20070;-64
2022/05/01 01:35:49;;;;;;;15.90;11.07;;;;;;;;;;5012018;28;20496;-64
2022/05/01 01:38:16;;;;;;;17.27;11.40;;;;;;;;;;5011882;28;20085;-64
2022/05/01 01:40:42;;;;;;;16.15;10.95;;;;;;;;;;5010278;28;20057;-64
2022/05/01 01:43:09;;;;;;;15.85;11.57;;;;;;;;;;5011966;28;20040;-64
2022/05/01 01:45:35;;;;;;;18.90;12.00;;;;;;;;;;5011975;28;20451;-64
2022/05/01 01:48:14;;;;;;;15.00;11.68;;;;;;;;;;5009863;28;20380;-64
2022/05/01 01:50:40;;;;;;;16.98;10.82;;;;;;;;;;5011824;28;20113;-64
2022/05/01 01:53:07;;;;;;;17.65;12.07;;;;;;;;;;5011642;28;20041;-64
2022/05/01 01:55:33;;;;;;;16.13;11.98;;;;;;;;;;5011249;28;20033;-64
2022/05/01 01:58:00;;;;;;;16.65;11.93;;;;;;;;;;5011824;28;20489;-64
2022/05/01 02:00:26;;;;;;;14.35;10.95;;;;;;;;;;5011622;28;20488;-64
2022/05/01 02:02:58;;;;;;;16.58;11.95;;;;;;;;;;5011200;28;20123;-64
2022/05/01 02:05:25;;;;;;;17.10;11.88;;;;;;;;;;5010216;28;20137;-64
2022/05/01 02:07:51;;;;;;;15.80;11.55;;;;;;;;;;5011593;28;20057;-64
2022/05/01 02:10:18;;;;;;;19.55;12.77;;;;;;;;;;5009800;28;20049;-64
2022/05/01 02:12:44;;;;;;;17.45;11.90;;;;;;;;;;5011492;28;20041;-64
2022/05/01 02:15:10;;;;;;;14.95;12.00;;;;;;;;;;5013712;28;20038;-64
2022/05/01 02:17:39;;;;;;;18.00;12.48;;;;;;;;;;5015052;28;20469;-64
2022/05/01 02:20:08;;;;;;;20.50;13.32;;;;;;;;;;5014406;28;20041;-64
2022/05/01 02:22:34;;;;;;;16.30;12.20;;;;;;;;;;5015600;28;20122;-64
2022/05/01 02:25:01;;;;;;;20.05;13.25;;;;;;;;;;5014815;28;20049;-64
2022/05/01 02:27:27;;;;;;;18.73;12.88;;;;;;;;;;5015352;28;20042;-64
2022/05/01 02:29:53;;;;;;;16.75;12.35;;;;;;;;;;5015361;28;20124;-64
2022/05/01 02:32:19;;;;;;;20.23;12.43;;;;;;;;;;5014743;28;20033;-64
2022/05/01 02:34:45;;;;;;;17.55;13.40;;;;;;;;;;5015180;28;20034;-64
2022/05/01 02:37:11;;;;;;;19.65;13.73;;;;;;;;;;5014044;28;20489;-64
2022/05/01 02:39:37;;;;;;;20.48;14.55;;;;;;;;;;5013007;28;20115;-64
2022/05/01 02:42:04;;;;;;;19.00;13.95;;;;;;;;;;5015048;28;20655;-64
2022/05/01 02:44:30;;;;;;;17.80;12.90;;;;;;;;;;5015238;28;20381;-64
2022/05/01 02:46:56;;;;;;;20.05;14.15;;;;;;;;;;5014630;28;20465;-64
2022/05/01 02:49:22;;;;;;;20.75;15.15;;;;;;;;;;5014967;28;20451;-64
2022/05/01 02:51:49;;;;;;;21.23;16.02;;;;;;;;;;5015142;28;20080;-64
2022/05/01 02:54:15;;;;;;;21.17;13.73;;;;;;;;;;5013095;28;20045;-64
2022/05/01 02:56:41;;;;;;;17.70;14.77;;;;;;;;;;5014638;28;20052;-64
2022/05/01 02:59:09;;;;;;;18.63;15.20;;;;;;;;;;5014813;28;20092;-64
2022/05/01 03:01:36;;;;;;;23.75;15.43;;;;;;;;;;5014199;28;20042;-64
2022/05/01 03:04:02;;;;;;;21.10;15.48;;;;;;;;;;5014338;28;20038;-64
2022/05/01 03:06:28;;;;;;;25.92;16.00;;;;;;;;;;5014514;28;20104;-64
2022/05/01 03:08:54;;;;;;;23.83;16.85;;;;;;;;;;5013831;28;20108;-64
2022/05/01 03:11:20;;;;;;;25.58;15.75;;;;;;;;;;5014444;28;20065;-64
2022/05/01 03:13:46;;;;;;;22.67;15.50;;;;;;;;;;5014611;28;20073;-64
2022/05/01 03:16:13;;;;;;;21.05;15.68;;;;;;;;;;5013950;28;20436;-64
2022/05/01 03:24:08;;;;;;;21.35;15.35;;;;;;;;;;5013889;28;20045;-64
2022/05/01 03:26:34;;;;;;;21.58;15.23;;;;;;;;;;5013417;28;20533;-64
2022/05/01 03:29:00;;;;;;;23.80;16.00;;;;;;;;;;5014389;28;20403;-64
2022/05/01 03:31:29;;;;;;;23.20;17.02;;;;;;;;;;5013685;28;20129;-64
2022/05/01 03:33:56;;;;;;;22.10;15.30;;;;;;;;;;5014074;28;20608;-64
2022/05/01 03:36:22;;;;;;;24.92;15.70;;;;;;;;;;5013999;28;20435;-64
2022/05/01 03:38:48;;;;;;;26.40;15.05;;;;;;;;;;5013306;28;20037;-64
2022/05/01 03:41:15;;;;;;;26.75;15.80;;;;;;;;;;5014216;28;20038;-64
2022/05/01 03:43:42;;;;;;;24.48;15.88;;;;;;;;;;5013764;28;20042;-64
2022/05/01 03:46:08;;;;;;;23.83;17.27;;;;;;;;;;5012253;28;20093;-64
2022/05/01 03:48:35;;;;;;;22.80;16.20;;;;;;;;;;5013968;28;20034;-64
2022/05/01 03:51:01;;;;;;;23.98;16.25;;;;;;;;;;5013537;28;20061;-64
2022/05/01 03:53:27;;;;;;;21.58;15.25;;;;;;;;;;5013274;28;20034;-64
2022/05/01 03:55:53;;;;;;;25.48;16.00;;;;;;;;;;5013830;28;20034;-64
2022/05/01 03:58:20;;;;;;;22.58;16.33;;;;;;;;;;5013610;28;20491;-64
2022/05/01 04:00:47;;;;;;;25.17;16.50;;;;;;;;;;5011718;28;20400;-64
2022/05/01 04:03:19;;;;;;;23.25;15.73;;;;;;;;;;5013604;28;20092;-64
2022/05/01 04:05:46;;;;;;;24.90;16.25;;;;;;;;;;5013379;28;20128;-64
2022/05/01 04:08:12;;;;;;;22.38;16.15;;;;;;;;;;5012824;28;20617;-64
2022/05/01 04:10:40;;;;;;;24.83;17.30;;;;;;;;;;5013477;28;20038;-64
2022/05/01 04:13:06;;;;;;;25.35;17.52;;;;;;;;;;5012192;28;20048;-64
2022/05/01 04:15:33;;;;;;;23.17;16.67;;;;;;;;;;5011225;28;20538;-64
2022/05/01 04:18:02;;;;;;;23.55;16.05;;;;;;;;;;5013333;28;20038;-64
2022/05/01 04:20:29;;;;;;;22.38;16.05;;;;;;;;;;5012160;28;20049;-64
2022/05/01 04:22:56;;;;;;;22.75;16.35;;;;;;;;;;5012606;28;20568;-64
2022/05/01 04:25:26;;;;;;;24.08;17.17;;;;;;;;;;5013056;28;20085;-64
2022/05/01 04:27:54;;;;;;;26.77;16.48;;;;;;;;;;5013213;28;20082;-64
2022/05/01 04:30:22;;;;;;;26.60;17.17;;;;;;;;;;5012349;28;20045;-64
2022/05/01 04:32:54;;;;;;;23.10;17.13;;;;;;;;;;5013113;28;20117;-64
2022/05/01 04:35:46;;;;;;;27.23;17.23;;;;;;;;;;5013145;28;20040;-64
2022/05/01 04:38:20;;;;;;;25.30;16.75;;;;;;;;;;5008017;28;20053;-64
2022/05/01 04:40:47;;;;;;;22.83;16.73;;;;;;;;;;5012957;28;20117;-64
2022/05/01 04:43:17;;;;;;;27.77;16.73;;;;;;;;;;5011613;28;20261;-64
2022/05/01 04:45:43;;;;;;;25.98;17.75;;;;;;;;;;5012061;28;20497;-64
2022/05/01 04:48:10;;;;;;;28.05;17.35;;;;;;;;;;5012801;28;20037;-64
2022/05/01 04:50:37;;;;;;;23.98;16.15;;;;;;;;;;5012395;28;20074;-64
2022/05/01 04:53:06;;;;;;;22.08;16.33;;;;;;;;;;5012084;28;20052;-64
2022/05/01 04:55:33;;;;;;;22.17;15.35;;;;;;;;;;5012465;28;20492;-64
2022/05/01 04:57:59;;;;;;;21.15;16.42;;;;;;;;;;5012644;28;20034;-64
2022/05/01 05:00:26;;;;;;;21.55;15.90;;;;;;;;;;5012024;28;20080;-64
2022/05/01 05:02:53;;;;;;;24.58;16.95;;;;;;;;;;5011273;28;20060;-64
2022/05/01 05:05:20;;;;;;;28.00;16.80;;;;;;;;;;5012322;28;20050;-64
2022/05/01 05:07:46;;;;;;;23.85;16.33;;;;;;;;;;5011709;28;20050;-64
2022/05/01 05:10:13;;;;;;;27.40;17.00;;;;;;;;;;5012391;28;20100;-64
2022/05/01 05:12:42;;;;;;;24.15;16.60;;;;;;;;;;5012503;28;20097;-64
2022/05/01 05:15:10;;;;;;;25.08;16.55;;;;;;;;;;5011889;28;20420;-64
2022/05/01 05:17:36;;;;;;;23.92;16.58;;;;;;;;;;5010793;28;20082;-64
2022/05/01 05:20:03;;;;;;;23.25;16.50;;;;;;;;;;5012512;28;20078;-64
2022/05/01 05:22:29;;;;;;;24.20;15.95;;;;;;;;;;5011685;28;20045;-64
2022/05/01 05:24:55;;;;;;;22.67;16.00;;;;;;;;;;5012008;28;20073;-64
2022/05/01 05:27:25;;;;;;;24.02;15.10;;;;;;;;;;5012194;28;20045;-64
2022/05/01 05:29:52;;;;;;;23.63;17.10;;;;;;;;;;5011398;28;20054;-64
2022/05/01 05:32:18;;;;;;;25.58;17.52;;;;;;;;;;5011899;28;20080;-64
2022/05/01 05:34:44;;;;;;;22.65;16.55;;;;;;;;;;5012065;28;20045;-64
2022/05/01 05:37:10;;;;;;;22.42;16.65;;;;;;;;;;5011519;28;20042;-64
2022/05/01 05:39:36;;;;;;;23.30;16.77;;;;;;;;;;5012065;28;20048;-64
2022/05/01 05:42:02;;;;;;;25.02;17.08;;;;;;;;;;5010458;28;20056;-64
2022/05/01 05:44:28;;;;;;;23.77;17.15;;;;;;;;;;5011385;28;20042;-64
2022/05/01 05:46:54;;;;;;;26.15;16.88;;;;;;;;;;5011624;28;20038;-64
2022/05/01 05:49:20;;;;;;;24.55;17.20;;;;;;;;;;5011464;28;20041;-64
2022/05/01 05:51:46;;;;;;;29.08;18.73;;;;;;;;;;5011252;28;20038;-64
2022/05/01 05:54:12;;;;;;;29.38;17.60;;;;;;;;;;5011780;28;20037;-64
2022/05/01 05:56:39;;;;;;;26.45;17.83;;;;;;;;;;5011948;28;20034;-64
2022/05/01 05:59:05;;;;;;;28.27;18.95;;;;;;;;;;5011059;28;20365;-64
2022/05/01 06:01:31;;;;;;;29.70;18.23;;;;;;;;;;5010489;28;20049;-64
2022/05/01 06:03:57;;;;;;;25.55;17.23;;;;;;;;;;5011543;28;20041;-64
2022/05/01 06:06:23;;;;;;;25.48;16.88;;;;;;;;;;5010710;28;20388;-64
2022/05/01 06:08:49;;;;;;;21.88;16.05;;;;;;;;;;5011731;28;20046;-64
2022/05/01 06:11:15;;;;;;;20.80;15.73;;;;;;;;;;5011643;28;20042;-64
2022/05/01 06:13:41;;;;;;;22.10;16.33;;;;;;;;;;5010932;28;20049;-64
2022/05/01 06:16:07;;;;;;;19.50;13.50;;;;;;;;;;5011810;28;20124;-64
2022/05/01 06:18:34;;;;;;;23.35;14.77;;;;;;;;;;5011546;28;20114;-64
2022/05/01 06:21:00;;;;;;;21.52;14.95;;;;;;;;;;5011077;28;20133;-64
2022/05/01 06:23:26;;;;;;;25.05;15.05;;;;;;;;;;5011628;28;20049;-64
2022/05/01 06:25:52;;;;;;;20.30;13.25;;;;;;;;;;5011569;28;20568;-64
2022/05/01 06:28:18;;;;;;;16.40;12.93;;;;;;;;;;5010888;28;20161;-64
2022/05/01 06:30:45;;;;;;;17.10;12.00;;;;;;;;;;5011113;28;20077;-64
2022/05/01 06:33:22;;;;;;;17.88;12.52;;;;;;;;;;5011243;28;20052;-64
2022/05/01 06:35:54;;;;;;;18.13;12.65;;;;;;;;;;5025979;28;20137;-64
2022/05/01 06:38:20;;;;;;;16.15;11.75;;;;;;;;;;5011240;28;20546;-64
2022/05/01 06:40:46;;;;;;;16.50;11.98;;;;;;;;;;5011447;28;20042;-64
2022/05/01 06:43:13;;;;;;;17.77;12.15;;;;;;;;;;5010693;28;20042;-64
2022/05/01 06:45:41;;;;;;;16.90;11.25;;;;;;;;;;5011514;28;20069;-64
2022/05/01 06:48:08;;;;;;;16.75;11.85;;;;;;;;;;5011411;28;20048;-64
2022/05/01 06:50:34;;;;;;;16.92;11.48;;;;;;;;;;5010454;28;20056;-64
2022/05/01 06:53:01;;;;;;;15.85;10.02;;;;;;;;;;5011383;28;20030;-64
2022/05/01 06:55:27;;;;;;;18.45;10.55;;;;;;;;;;5011223;28;20543;-64
2022/05/01 06:57:53;;;;;;;20.33;10.68;;;;;;;;;;5010200;28;20149;-64
2022/05/01 07:00:20;;;;;;;17.00;10.55;;;;;;;;;;5011385;28;20085;-64
2022/05/01 07:02:47;;;;;;;16.08;10.65;;;;;;;;;;5014157;28;20037;-64
2022/05/01 07:05:13;;;;;;;13.20;9.32;;;;;;;;;;5014050;28;20089;-64
2022/05/01 07:07:39;;;;;;;15.80;10.23;;;;;;;;;;5013834;28;20100;-64
2022/05/01 07:10:06;;;;;;;17.80;11.30;;;;;;;;;;5014723;28;20038;-64
2022/05/01 07:12:32;;;;;;;13.85;10.68;;;;;;;;;;5013815;28;20038;-64
2022/05/01 07:14:58;;;;;;;12.63;8.95;;;;;;;;;;5014217;28;20176;-64
2022/05/01 07:17:24;;;;;;;13.23;9.23;;;;;;;;;;5014644;28;20065;-64
2022/05/01 07:19:50;;;;;;;12.35;8.38;;;;;;;;;;5012886;28;20480;-64
2022/05/01 07:22:17;;;;;;;11.35;8.63;;;;;;;;;;5014614;28;20045;-64
2022/05/01 07:24:43;;;;;;;15.05;8.50;;;;;;;;;;5014581;28;20093;-64
2022/05/01 07:27:09;;;;;;;12.48;9.40;;;;;;;;;;5014285;28;20045;-64
2022/05/01 07:29:35;;;;;;;14.48;9.07;;;;;;;;;;5013829;28;20041;-64
2022/05/01 07:32:01;;;;;;;11.68;8.52;;;;;;;;;;5014329;28;20038;-64
2022/05/01 07:34:27;;;;;;;11.65;7.65;;;;;;;;;;5014205;28;20556;-64
2022/05/01 07:36:53;;;;;;;11.60;7.43;;;;;;;;;;5013651;28;20472;-64
2022/05/01 07:39:19;;;;;;;12.63;7.40;;;;;;;;;;5014024;28;20062;-64
2022/05/01 07:41:46;;;;;;;13.15;8.15;;;;;;;;;;5012830;28;20130;-64
2022/05/01 07:44:12;;;;;;;15.02;7.90;;;;;;;;;;5013393;28;20473;-64
2022/05/01 07:46:41;;;;;;;12.65;7.32;;;;;;;;;;5014200;28;20464;-64
2022/05/01 07:49:07;;;;;;;13.95;8.27;;;;;;;;;;5013562;28;20041;-64
2022/05/01 07:51:34;;;;;;;10.27;8.50;;;;;;;;;;5013036;28;20057;-64
2022/05/01 07:54:00;;;;;;;12.50;8.70;;;;;;;;;;5013605;28;20173;-64
2022/05/01 07:56:27;;;;;;;10.98;8.05;;;;;;;;;;5013659;28;20075;-64
2022/05/01 07:58:53;;;;;;;12.57;7.95;;;;;;;;;;5012953;28;20061;-64
2022/05/01 08:01:19;;;;;;;14.55;7.97;;;;;;;;;;5012520;28;20050;-64
2022/05/01 08:06:30;;;;;;;10.00;6.95;;;;;;;;;;5012740;28;20054;-64
2022/05/01 08:08:56;;;;;;;9.20;6.50;;;;;;;;;;5013570;28;20109;-64
2022/05/01 08:11:23;;;;;;;7.03;6.03;;;;;;;;;;5013301;28;20133;-64
2022/05/01 08:13:49;;;;;;;8.50;5.28;;;;;;;;;;5012452;28;20461;-64
2022/05/01 08:16:17;;;;;;;8.60;5.53;;;;;;;;;;5013438;28;20034;-64
2022/05/01 08:21:31;;;;;;;9.20;6.10;;;;;;;;;;5013240;28;20050;-64
2022/05/01 08:23:57;;;;;;;9.82;5.88;;;;;;;;;;5013095;28;20646;-64
2022/05/01 08:26:23;;;;;;;7.15;5.65;;;;;;;;;;5011362;28;20100;-64
2022/05/01 08:28:51;;;;;;;7.07;5.40;;;;;;;;;;5012838;28;20089;-64
2022/05/01 08:31:17;;;;;;;8.88;6.30;;;;;;;;;;5013234;28;20041;-64
2022/05/01 08:33:43;;;;;;;7.63;5.38;;;;;;;;;;5013245;28;20202;-64
2022/05/01 08:36:10;;;;;;;7.32;4.95;;;;;;;;;;5012595;28;20038;-64
2022/05/01 08:38:37;;;;;;;8.80;5.50;;;;;;;;;;5012957;28;20049;-64
2022/05/01 08:41:03;;;;;;;10.85;5.72;;;;;;;;;;5011707;28;20061;-64
2022/05/01 08:43:31;;;;;;;7.47;5.22;;;;;;;;;;5012123;28;20045;-64
2022/05/01 08:46:16;;;;;;;8.70;5.88;;;;;;;;;;5012979;28;20508;-64
2022/05/01 08:49:03;;;;;;;6.93;4.95;;;;;;;;;;5012184;28;20100;-64
2022/05/01 08:51:31;;;;;;;8.82;5.60;;;;;;;;;;5012730;28;20100;-64
2022/05/01 08:53:58;;;;;;;10.00;5.55;;;;;;;;;;5011468;28;20054;-64
2022/05/01 08:56:25;;;;;;;7.88;5.35;;;;;;;;;;5012159;28;20046;-64
2022/05/01 08:58:51;;;;;;;8.77;6.10;;;;;;;;;;5012624;28;20073;-64
2022/05/01 09:01:18;;;;;;;8.25;6.22;;;;;;;;;;5011423;28;20052;-64
2022/05/01 09:03:45;;;;;;;12.05;6.43;;;;;;;;;;5012063;28;20080;-64
2022/05/01 09:06:11;;;;;;;7.95;6.68;;;;;;;;;;5012110;28;20054;-64
2022/05/01 09:08:38;;;;;;;9.15;6.28;;;;;;;;;;5012254;28;20064;-64
2022/05/01 09:13:49;;;;;;;8.23;5.82;;;;;;;;;;5012472;28;20051;-64
2022/05/01 09:16:15;;;;;;;8.10;5.88;;;;;;;;;;5012446;28;20042;-64
2022/05/01 09:18:45;;;;;;;8.98;5.90;;;;;;;;;;5011676;28;20037;-64
2022/05/01 09:21:11;;;;;;;8.10;6.03;;;;;;;;;;5012178;28;20077;-64
2022/05/01 09:23:41;;;;;;;7.85;5.30;;;;;;;;;;5012024;28;20057;-64
2022/05/01 09:26:09;;;;;;;9.73;6.00;;;;;;;;;;5011287;28;20653;-64
2022/05/01 09:28:36;;;;;;;8.45;6.22;;;;;;;;;;5010728;28;20447;-64
2022/05/01 09:31:02;;;;;;;8.52;5.88;;;;;;;;;;5011855;28;20049;-64
2022/05/01 09:33:29;;;;;;;8.38;6.55;;;;;;;;;;5011620;28;20100;-64
2022/05/01 09:35:55;;;;;;;12.80;5.68;;;;;;;;;;5012053;28;20038;-64
2022/05/01 09:38:24;;;;;;;6.45;5.75;;;;;;;;;;5011762;28;20053;-64
2022/05/01 09:40:54;;;;;;;9.02;5.72;;;;;;;;;;5011299;28;20054;-64
2022/05/01 09:43:34;;;;;;;11.80;6.80;;;;;;;;;;5011771;28;20053;-64
2022/05/01 09:46:13;;;;;;;8.07;5.78;;;;;;;;;;5011738;28;20107;-64
2022/05/01 09:48:40;;;;;;;10.23;5.90;;;;;;;;;;5010973;28;20088;-64
2022/05/01 09:51:16;;;;;;;9.70;5.97;;;;;;;;;;5011853;28;20161;-64
2022/05/01 09:53:42;;;;;;;7.35;5.65;;;;;;;;;;5010761;28;20054;-64
2022/05/01 09:56:08;;;;;;;8.13;6.03;;;;;;;;;;5011177;28;20133;-64
2022/05/01 09:58:38;;;;;;;8.77;5.70;;;;;;;;;;5010538;28;20120;-64
2022/05/01 10:01:09;;;;;;;7.65;4.93;;;;;;;;;;5010399;28;20096;-64
2022/05/01 10:03:35;;;;;;;6.78;4.80;;;;;;;;;;5011163;28;20119;-64
2022/05/01 10:06:03;;;;;;;9.38;5.03;;;;;;;;;;5011440;28;20062;-64
2022/05/01 10:08:29;;;;;;;7.65;4.78;;;;;;;;;;5011753;28;20046;-64
2022/05/01 10:10:57;;;;;;;7.53;5.20;;;;;;;;;;5011188;28;20046;-64
2022/05/01 10:13:27;;;;;;;11.07;5.47;;;;;;;;;;5011515;28;20053;-64
2022/05/01 10:15:53;;;;;;;7.95;5.10;;;;;;;;;;5011646;28;20053;-64
2022/05/01 10:18:20;;;;;;;6.57;5.07;;;;;;;;;;5010914;28;20073;-65
2022/05/01 10:20:46;;;;;;;10.05;6.43;;;;;;;;;;5011469;28;20042;-64
2022/05/01 10:23:12;;;;;;;8.90;5.47;;;;;;;;;;5011698;28;20491;-64
2022/05/01 10:25:45;;;;;;;9.35;5.40;;;;;;;;;;5010926;28;20033;-64
2022/05/01 10:28:14;;;;;;;7.43;5.65;;;;;;;;;;5011300;28;20687;-64
2022/05/01 10:33:49;;;;;;;7.15;5.35;;;;;;;;;;5010829;28;20046;-64
2022/05/01 10:36:34;;;;;;;10.10;5.45;;;;;;;;;;5013444;28;20096;-65
2022/05/01 10:39:03;;;;;;;8.18;5.28;;;;;;;;;;5013955;28;20124;-65
2022/05/01 10:41:29;;;;;;;9.35;5.25;;;;;;;;;;5014436;28;20050;-65
2022/05/01 10:43:56;;;;;;;6.18;4.95;;;;;;;;;;5014966;28;20034;-65
2022/05/01 10:46:22;;;;;;;5.97;4.72;;;;;;;;;;5015031;28;20100;-64
2022/05/01 10:48:48;;;;;;;8.05;4.55;;;;;;;;;;5014520;28;20042;-64
2022/05/01 10:51:30;;;;;;;7.00;4.82;;;;;;;;;;5015108;28;20041;-64
2022/05/01 10:54:11;;;;;;;7.10;5.15;;;;;;;;;;5015316;28;20046;-64
2022/05/01 10:56:38;;;;;;;7.70;5.10;;;;;;;;;;5014275;28;20364;-64
2022/05/01 10:59:22;;;;;;;7.20;4.97;;;;;;;;;;5029821;28;20041;-64
2022/05/01 11:01:52;;;;;;;8.48;5.35;;;;;;;;;;5013498;28;20124;-64
2022/05/01 11:04:21;;;;;;;7.47;4.97;;;;;;;;;;5014982;28;20461;-64
2022/05/01 11:06:54;;;;;;;8.02;5.47;;;;;;;;;;5014463;28;20060;-64
2022/05/01 11:09:21;;;;;;;8.55;4.80;;;;;;;;;;5014082;28;20057;-65
2022/05/01 11:11:52;;;;;;;6.95;4.82;;;;;;;;;;5014727;28;20416;-64
2022/05/01 11:14:32;;;;;;;6.47;5.18;;;;;;;;;;5014657;28;20156;-64
2022/05/01 11:16:58;;;;;;;7.63;4.72;;;;;;;;;;5013975;28;20145;-65
2022/05/01 11:19:24;;;;;;;7.45;4.63;;;;;;;;;;5014212;28;20080;-65
2022/05/01 11:21:50;;;;;;;6.05;5.05;;;;;;;;;;5014549;28;20133;-65
2022/05/01 11:24:36;;;;;;;7.88;4.53;;;;;;;;;;5013870;28;20838;-65
2022/05/01 11:27:12;;;;;;;8.38;5.18;;;;;;;;;;5013916;28;20177;-65
2022/05/01 11:29:38;;;;;;;4.35;3.42;;;;;;;;;;5014007;28;20048;-65
2022/05/01 11:32:21;;;;;;;7.78;3.63;;;;;;;;;;5013739;28;20091;-65
2022/05/01 11:34:49;;;;;;;7.68;3.60;;;;;;;;;;5028919;28;20473;-65
2022/05/01 11:37:15;;;;;;;4.45;3.28;;;;;;;;;;5012988;28;20042;-65
2022/05/01 11:39:44;;;;;;;4.10;2.90;;;;;;;;;;5013437;28;20091;-64
2022/05/01 11:42:25;;;;;;;6.47;4.63;;;;;;;;;;5014033;28;20057;-65
2022/05/01 11:44:52;;;;;;;5.22;3.47;;;;;;;;;;5014193;28;20030;-65
2022/05/01 11:47:21;;;;;;;6.18;3.80;;;;;;;;;;5012929;28;20042;-65
2022/05/01 11:49:47;;;;;;;8.90;4.38;;;;;;;;;;5012484;28;20466;-65
2022/05/01 11:52:16;;;;;;;5.25;3.97;;;;;;;;;;5013582;28;20142;-65
2022/05/01 11:54:50;;;;;;;5.15;3.75;;;;;;;;;;5013289;28;20733;-65
2022/05/01 12:02:58;;;;;;;5.05;3.33;;;;;;;;;;5013186;28;20322;-65
2022/05/01 12:05:25;;;;;;;4.63;3.15;;;;;;;;;;5013362;28;20196;-65
2022/05/01 12:07:55;;;;;;;5.07;2.92;;;;;;;;;;5013643;28;20123;-65
2022/05/01 12:10:21;;;;;;;5.55;3.80;;;;;;;;;;5011572;28;20049;-65
2022/05/01 12:12:47;;;;;;;6.13;3.55;;;;;;;;;;5013649;28;20034;-65
2022/05/01 12:15:13;;;;;;;5.72;3.85;;;;;;;;;;5013523;28;20081;-65
2022/05/01 12:17:40;;;;;;;4.00;3.60;;;;;;;;;;5011496;28;20045;-65
2022/05/01 12:20:07;;;;;;;5.85;3.90;;;;;;;;;;5013441;28;20042;-65
2022/05/01 12:22:39;;;;;;;4.50;3.47;;;;;;;;;;5013350;28;20045;-65
2022/05/01 12:25:11;;;;;;;6.70;4.00;;;;;;;;;;5012777;28;20057;-65
2022/05/01 12:27:41;;;;;;;5.20;3.90;;;;;;;;;;5013250;28;20416;-65
2022/05/01 12:30:08;;;;;;;4.75;3.38;;;;;;;;;;5013284;28;20034;-65
2022/05/01 12:32:35;;;;;;;5.00;3.83;;;;;;;;;;5012686;28;20042;-65
2022/05/01 12:35:01;;;;;;;4.68;3.45;;;;;;;;;;5013201;28;20042;-65
2022/05/01 12:37:35;;;;;;;5.53;3.35;;;;;;;;;;5013249;28;20038;-65
2022/05/01 12:40:12;;;;;;;4.07;3.20;;;;;;;;;;5012486;28;20491;-65
2022/05/01 12:45:39;;;;;;;4.80;3.50;;;;;;;;;;5012372;28;20417;-65
2022/05/01 12:48:06;;;;;;;5.05;3.03;;;;;;;;;;5012909;28;20092;-65
2022/05/01 12:50:35;;;;;;;4.90;3.28;;;;;;;;;;5012917;28;20073;-65
2022/05/01 12:53:02;;;;;;;5.15;3.83;;;;;;;;;;5012221;28;20464;-65
2022/05/01 12:55:30;;;;;;;6.50;3.40;;;;;;;;;;4994918;28;20046;-65
2022/05/01 12:57:59;;;;;;;4.13;3.13;;;;;;;;;;5012744;28;20077;-65
2022/05/01 13:00:29;;;;;;;5.22;3.22;;;;;;;;;;5011245;28;20045;-65
2022/05/01 13:03:14;;;;;;;6.20;3.45;;;;;;;;;;5012419;28;20046;-65
2022/05/01 13:05:41;;;;;;;5.82;3.83;;;;;;;;;;5012333;28;20046;-65
2022/05/01 13:08:20;;;;;;;3.78;3.40;;;;;;;;;;5011782;28;20053;-65
2022/05/01 13:11:05;;;;;;;3.97;3.47;;;;;;;;;;5011097;28;20046;-65
2022/05/01 13:13:41;;;;;;;6.82;3.78;;;;;;;;;;5012220;28;20046;-65
2022/05/01 13:16:07;;;;;;;5.53;3.60;;;;;;;;;;5010160;28;20068;-65
2022/05/01 13:18:33;;;;;;;5.63;3.83;;;;;;;;;;5012267;28;20042;-65
2022/05/01 13:20:59;;;;;;;7.00;3.95;;;;;;;;;;5012400;28;20099;-65
2022/05/01 13:23:25;;;;;;;4.60;3.72;;;;;;;;;;5011594;28;20044;-65
2022/05/01 13:25:51;;;;;;;5.85;3.28;;;;;;;;;;5010711;28;20065;-65
2022/05/01 13:28:17;;;;;;;5.30;3.47;;;;;;;;;;5010624;28;20096;-65
2022/05/01 13:30:43;;;;;;;6.72;3.92;;;;;;;;;;5011584;28;20101;-65
2022/05/01 13:33:09;;;;;;;4.70;3.20;;;;;;;;;;5012237;28;20041;-65
2022/05/01 13:35:36;;;;;;;5.57;4.20;;;;;;;;;;5012131;28;20045;-65
2022/05/01 13:38:02;;;;;;;8.32;3.92;;;;;;;;;;5011078;28;20473;-65
2022/05/01 13:45:58;;;;;;;6.05;3.80;;;;;;;;;;5011385;28;20041;-65
2022/05/01 13:48:24;;;;;;;6.35;3.80;;;;;;;;;;5010708;28;20115;-65
2022/05/01 13:50:51;;;;;;;5.88;3.92;;;;;;;;;;5011954;28;20503;-65
2022/05/01 13:53:17;;;;;;;7.10;3.70;;;;;;;;;;5011067;28;20046;-65
2022/05/01 13:55:43;;;;;;;4.70;3.78;;;;;;;;;;5011704;28;20038;-65
2022/05/01 13:58:09;;;;;;;4.28;3.83;;;;;;;;;;5011505;28;20041;-65
2022/05/01 14:00:36;;;;;;;5.95;3.28;;;;;;;;;;5011227;28;20066;-65
2022/05/01 14:03:07;;;;;;;7.00;3.47;;;;;;;;;;5011761;28;20532;-65
2022/05/01 14:05:33;;;;;;;4.40;3.97;;;;;;;;;;5011627;28;20532;-65
2022/05/01 14:07:59;;;;;;;5.75;3.70;;;;;;;;;;5011121;28;20056;-65
2022/05/01 14:10:26;;;;;;;4.75;3.33;;;;;;;;;;5012653;28;20042;-65
2022/05/01 14:12:52;;;;;;;4.43;3.40;;;;;;;;;;5015882;28;20120;-65
2022/05/01 14:15:19;;;;;;;3.70;2.80;;;;;;;;;;5013890;28;20038;-65
2022/05/01 14:17:45;;;;;;;5.22;3.25;;;;;;;;;;5015634;28;20053;-65
2022/05/01 14:20:11;;;;;;;5.78;3.22;;;;;;;;;;5015735;28;20049;-65
2022/05/01 14:22:43;;;;;;;3.85;3.00;;;;;;;;;;5014936;28;20037;-65
2022/05/01 14:25:09;;;;;;;4.05;3.10;;;;;;;;;;5015599;28;20041;-65
2022/05/01 14:27:35;;;;;;;5.10;3.28;;;;;;;;;;5015249;28;20652;-65
2022/05/01 14:30:01;;;;;;;4.88;3.10;;;;;;;;;;5014829;28;20068;-65
2022/05/01 14:32:50;;;;;;;5.28;3.30;;;;;;;;;;5015621;28;20088;-65
2022/05/01 14:35:20;;;;;;;3.30;2.58;;;;;;;;;;5007405;28;20140;-65
2022/05/01 14:37:49;;;;;;;4.45;2.90;;;;;;;;;;5014803;28;20096;-65
2022/05/01 14:40:17;;;;;;;4.35;2.75;;;;;;;;;;5015300;28;20124;-65
2022/05/01 14:42:46;;;;;;;3.72;3.00;;;;;;;;;;5015255;28;20050;-65
2022/05/01 14:45:14;;;;;;;3.92;2.47;;;;;;;;;;5014594;28;20038;-65
2022/05/01 14:47:40;;;;;;;6.32;2.63;;;;;;;;;;5015119;28;20108;-66
2022/05/01 14:50:10;;;;;;;3.38;2.95;;;;;;;;;;5014799;28;20086;-66
2022/05/01 14:52:36;;;;;;;3.97;2.70;;;;;;;;;;5014510;28;20092;-66
2022/05/01 14:55:06;;;;;;;3.53;2.80;;;;;;;;;;5014997;28;20524;-66
2022/05/01 14:57:34;;;;;;;5.60;2.78;;;;;;;;;;5015045;28;20053;-65
2022/05/01 15:08:22;;;;;;;3.88;2.45;;;;;;;;;;5013846;28;20049;-65
2022/05/01 15:10:49;;;;;;;4.50;3.20;;;;;;;;;;5013435;28;20081;-65
2022/05/01 15:13:15;;;;;;;3.80;2.58;;;;;;;;;;5014778;28;20037;-65
2022/05/01 15:15:49;;;;;;;3.35;2.90;;;;;;;;;;5013739;28;20033;-65
2022/05/01 15:18:17;;;;;;;6.88;3.10;;;;;;;;;;5014503;28;20045;-65
2022/05/01 15:20:48;;;;;;;3.70;3.13;;;;;;;;;;5014232;28;20129;-65